sensor_id;sensor_type;location;lat;lon;timestamp;temperature;humidity
70336;SHT31;57756;47.408;18.940;2022-07-23T00:01:16;24.96;60.40
70336;SHT31;57756;47.408;18.940;2022-07-23T00:03:42;24.93;59.63
70336;SHT31;57756;47.408;18.940;2022-07-23T00:06:07;24.92;59.96
70336;SHT31;57756;47.408;18.940;2022-07-23T00:08:33;24.85;59.48
70336;SHT31;57756;47.408;18.940;2022-07-23T00:10:58;24.83;59.21
70336;SHT31;57756;47.408;18.940;2022-07-23T00:13:24;24.78;59.70
70336;SHT31;57756;47.408;18.940;2022-07-23T00:15:49;24.75;59.64
70336;SHT31;57756;47.408;18.940;2022-07-23T00:18:15;24.73;59.26
70336;SHT31;57756;47.408;18.940;2022-07-23T00:20:40;24.71;59.34
70336;SHT31;57756;47.408;18.940;2022-07-23T00:23:06;24.67;59.37
70336;SHT31;57756;47.408;18.940;2022-07-23T00:25:32;24.65;59.15
70336;SHT31;57756;47.408;18.940;2022-07-23T00:27:58;24.68;60.60
70336;SHT31;57756;47.408;18.940;2022-07-23T00:30:24;24.59;59.87
70336;SHT31;57756;47.408;18.940;2022-07-23T00:32:53;24.55;60.14
70336;SHT31;57756;47.408;18.940;2022-07-23T00:35:22;24.47;60.25
70336;SHT31;57756;47.408;18.940;2022-07-23T00:37:48;24.44;59.85
70336;SHT31;57756;47.408;18.940;2022-07-23T00:40:14;24.38;61.08
70336;SHT31;57756;47.408;18.940;2022-07-23T00:42:40;24.40;61.08
70336;SHT31;57756;47.408;18.940;2022-07-23T00:45:06;24.51;59.39
70336;SHT31;57756;47.408;18.940;2022-07-23T00:47:32;24.41;60.12
70336;SHT31;57756;47.408;18.940;2022-07-23T00:49:57;24.35;60.24
70336;SHT31;57756;47.408;18.940;2022-07-23T00:52:23;24.28;60.93
70336;SHT31;57756;47.408;18.940;2022-07-23T00:54:49;24.24;61.61
70336;SHT31;57756;47.408;18.940;2022-07-23T00:57:15;24.20;61.75
70336;SHT31;57756;47.408;18.940;2022-07-23T00:59:41;24.14;62.38
70336;SHT31;57756;47.408;18.940;2022-07-23T01:02:07;24.11;62.49
70336;SHT31;57756;47.408;18.940;2022-07-23T01:04:32;24.07;63.39
70336;SHT31;57756;47.408;18.940;2022-07-23T01:06:59;24.03;62.73
70336;SHT31;57756;47.408;18.940;2022-07-23T01:09:25;23.99;63.33
70336;SHT31;57756;47.408;18.940;2022-07-23T01:11:51;23.93;63.27
70336;SHT31;57756;47.408;18.940;2022-07-23T01:14:18;23.93;63.08
70336;SHT31;57756;47.408;18.940;2022-07-23T01:16:46;23.90;63.13
70336;SHT31;57756;47.408;18.940;2022-07-23T01:19:12;23.86;62.82
70336;SHT31;57756;47.408;18.940;2022-07-23T01:21:43;23.87;62.75
70336;SHT31;57756;47.408;18.940;2022-07-23T01:24:09;23.80;62.60
70336;SHT31;57756;47.408;18.940;2022-07-23T01:26:36;23.80;62.77
70336;SHT31;57756;47.408;18.940;2022-07-23T01:29:02;23.77;63.31
70336;SHT31;57756;47.408;18.940;2022-07-23T01:31:28;23.76;63.50
70336;SHT31;57756;47.408;18.940;2022-07-23T01:33:54;23.67;63.38
70336;SHT31;57756;47.408;18.940;2022-07-23T01:36:19;23.66;64.13
70336;SHT31;57756;47.408;18.940;2022-07-23T01:38:45;23.62;63.87
70336;SHT31;57756;47.408;18.940;2022-07-23T01:41:10;23.62;63.82
70336;SHT31;57756;47.408;18.940;2022-07-23T01:43:36;23.59;63.93
70336;SHT31;57756;47.408;18.940;2022-07-23T01:46:01;23.59;64.72
70336;SHT31;57756;47.408;18.940;2022-07-23T01:48:27;23.52;64.52
70336;SHT31;57756;47.408;18.940;2022-07-23T01:50:52;23.51;65.00
70336;SHT31;57756;47.408;18.940;2022-07-23T01:53:18;23.48;64.58
70336;SHT31;57756;47.408;18.940;2022-07-23T01:55:43;23.45;65.56
70336;SHT31;57756;47.408;18.940;2022-07-23T01:58:09;23.42;65.48
70336;SHT31;57756;47.408;18.940;2022-07-23T02:00:35;23.44;65.61
70336;SHT31;57756;47.408;18.940;2022-07-23T02:03:01;23.37;66.67
70336;SHT31;57756;47.408;18.940;2022-07-23T02:05:26;23.38;65.98
70336;SHT31;57756;47.408;18.940;2022-07-23T02:07:54;23.37;66.27
70336;SHT31;57756;47.408;18.940;2022-07-23T02:10:20;23.31;66.56
70336;SHT31;57756;47.408;18.940;2022-07-23T02:12:46;23.29;66.91
70336;SHT31;57756;47.408;18.940;2022-07-23T02:15:11;23.25;65.31
70336;SHT31;57756;47.408;18.940;2022-07-23T02:17:37;23.24;65.95
70336;SHT31;57756;47.408;18.940;2022-07-23T02:20:03;23.14;66.07
70336;SHT31;57756;47.408;18.940;2022-07-23T02:22:29;23.15;65.98
70336;SHT31;57756;47.408;18.940;2022-07-23T02:24:55;23.10;67.41
70336;SHT31;57756;47.408;18.940;2022-07-23T02:27:20;23.06;67.95
70336;SHT31;57756;47.408;18.940;2022-07-23T02:29:46;23.06;67.84
70336;SHT31;57756;47.408;18.940;2022-07-23T02:32:12;22.97;68.49
70336;SHT31;57756;47.408;18.940;2022-07-23T02:34:38;22.97;68.15
70336;SHT31;57756;47.408;18.940;2022-07-23T02:37:03;22.91;68.19
70336;SHT31;57756;47.408;18.940;2022-07-23T02:39:28;22.90;68.10
70336;SHT31;57756;47.408;18.940;2022-07-23T02:41:54;22.93;68.50
70336;SHT31;57756;47.408;18.940;2022-07-23T02:44:19;23.00;67.32
70336;SHT31;57756;47.408;18.940;2022-07-23T02:46:45;22.91;67.92
70336;SHT31;57756;47.408;18.940;2022-07-23T02:49:10;22.90;67.58
70336;SHT31;57756;47.408;18.940;2022-07-23T02:51:36;22.86;67.83
70336;SHT31;57756;47.408;18.940;2022-07-23T02:54:01;22.84;67.84
70336;SHT31;57756;47.408;18.940;2022-07-23T02:56:27;22.83;67.30
70336;SHT31;57756;47.408;18.940;2022-07-23T02:58:52;22.84;67.33
70336;SHT31;57756;47.408;18.940;2022-07-23T03:01:18;22.86;67.06
70336;SHT31;57756;47.408;18.940;2022-07-23T03:03:43;22.87;67.05
70336;SHT31;57756;47.408;18.940;2022-07-23T03:06:09;22.81;67.49
70336;SHT31;57756;47.408;18.940;2022-07-23T03:08:34;22.84;67.60
70336;SHT31;57756;47.408;18.940;2022-07-23T03:11:00;22.86;67.43
70336;SHT31;57756;47.408;18.940;2022-07-23T03:13:25;22.81;67.32
70336;SHT31;57756;47.408;18.940;2022-07-23T03:15:51;22.83;67.22
70336;SHT31;57756;47.408;18.940;2022-07-23T03:18:16;22.86;67.52
70336;SHT31;57756;47.408;18.940;2022-07-23T03:20:42;22.83;67.15
70336;SHT31;57756;47.408;18.940;2022-07-23T03:23:07;22.81;67.55
70336;SHT31;57756;47.408;18.940;2022-07-23T03:25:33;22.84;68.78
70336;SHT31;57756;47.408;18.940;2022-07-23T03:27:58;22.90;68.87
70336;SHT31;57756;47.408;18.940;2022-07-23T03:30:24;22.90;68.60
70336;SHT31;57756;47.408;18.940;2022-07-23T03:32:49;22.90;67.04
70336;SHT31;57756;47.408;18.940;2022-07-23T03:35:15;22.89;67.52
70336;SHT31;57756;47.408;18.940;2022-07-23T03:37:40;22.93;67.69
70336;SHT31;57756;47.408;18.940;2022-07-23T03:40:06;22.94;69.47
70336;SHT31;57756;47.408;18.940;2022-07-23T03:42:32;22.94;68.42
70336;SHT31;57756;47.408;18.940;2022-07-23T03:44:57;23.00;67.70
70336;SHT31;57756;47.408;18.940;2022-07-23T03:47:23;23.07;69.57
70336;SHT31;57756;47.408;18.940;2022-07-23T03:49:49;23.12;69.96
70336;SHT31;57756;47.408;18.940;2022-07-23T03:52:16;23.18;68.73
70336;SHT31;57756;47.408;18.940;2022-07-23T03:54:41;23.24;69.88
70336;SHT31;57756;47.408;18.940;2022-07-23T03:57:07;23.32;69.67
70336;SHT31;57756;47.408;18.940;2022-07-23T03:59:32;23.37;69.61
70336;SHT31;57756;47.408;18.940;2022-07-23T04:01:58;23.45;69.70
70336;SHT31;57756;47.408;18.940;2022-07-23T04:04:23;23.51;69.38
70336;SHT31;57756;47.408;18.940;2022-07-23T04:06:49;23.56;69.04
70336;SHT31;57756;47.408;18.940;2022-07-23T04:09:15;23.63;69.80
70336;SHT31;57756;47.408;18.940;2022-07-23T04:11:40;23.66;70.37
70336;SHT31;57756;47.408;18.940;2022-07-23T04:14:06;23.75;69.56
70336;SHT31;57756;47.408;18.940;2022-07-23T04:16:32;23.83;72.30
70336;SHT31;57756;47.408;18.940;2022-07-23T04:18:58;23.84;71.13
70336;SHT31;57756;47.408;18.940;2022-07-23T04:21:24;23.89;71.29
70336;SHT31;57756;47.408;18.940;2022-07-23T04:23:49;23.86;70.17
70336;SHT31;57756;47.408;18.940;2022-07-23T04:26:15;23.96;71.18
70336;SHT31;57756;47.408;18.940;2022-07-23T04:28:41;24.01;68.03
70336;SHT31;57756;47.408;18.940;2022-07-23T04:31:07;24.11;69.72
70336;SHT31;57756;47.408;18.940;2022-07-23T04:33:32;24.21;70.41
70336;SHT31;57756;47.408;18.940;2022-07-23T04:35:58;24.40;68.09
70336;SHT31;57756;47.408;18.940;2022-07-23T04:38:23;24.52;68.73
70336;SHT31;57756;47.408;18.940;2022-07-23T04:40:49;24.62;66.67
70336;SHT31;57756;47.408;18.940;2022-07-23T04:43:15;24.68;67.84
70336;SHT31;57756;47.408;18.940;2022-07-23T04:45:41;24.68;70.75
70336;SHT31;57756;47.408;18.940;2022-07-23T04:48:06;24.69;69.74
70336;SHT31;57756;47.408;18.940;2022-07-23T04:50:32;24.79;68.71
70336;SHT31;57756;47.408;18.940;2022-07-23T04:52:57;24.93;71.17
70336;SHT31;57756;47.408;18.940;2022-07-23T04:55:23;25.15;68.45
70336;SHT31;57756;47.408;18.940;2022-07-23T04:57:49;25.43;67.98
70336;SHT31;57756;47.408;18.940;2022-07-23T05:00:14;25.65;65.73
70336;SHT31;57756;47.408;18.940;2022-07-23T05:02:40;25.96;64.32
70336;SHT31;57756;47.408;18.940;2022-07-23T05:05:06;26.22;60.63
70336;SHT31;57756;47.408;18.940;2022-07-23T05:07:32;26.57;55.81
70336;SHT31;57756;47.408;18.940;2022-07-23T05:09:57;26.96;55.98
70336;SHT31;57756;47.408;18.940;2022-07-23T05:12:22;27.26;55.66
70336;SHT31;57756;47.408;18.940;2022-07-23T05:14:48;27.54;52.77
70336;SHT31;57756;47.408;18.940;2022-07-23T05:17:14;27.76;51.76
70336;SHT31;57756;47.408;18.940;2022-07-23T05:19:39;27.80;54.06
70336;SHT31;57756;47.408;18.940;2022-07-23T05:22:05;27.88;51.29
70336;SHT31;57756;47.408;18.940;2022-07-23T05:24:30;28.04;53.73
70336;SHT31;57756;47.408;18.940;2022-07-23T05:26:56;28.29;52.89
70336;SHT31;57756;47.408;18.940;2022-07-23T05:29:21;28.45;50.10
70336;SHT31;57756;47.408;18.940;2022-07-23T05:31:47;28.57;51.47
70336;SHT31;57756;47.408;18.940;2022-07-23T05:34:12;28.69;53.45
70336;SHT31;57756;47.408;18.940;2022-07-23T05:36:38;28.96;52.81
70336;SHT31;57756;47.408;18.940;2022-07-23T05:39:04;29.18;52.03
70336;SHT31;57756;47.408;18.940;2022-07-23T05:41:30;29.42;50.82
70336;SHT31;57756;47.408;18.940;2022-07-23T05:43:56;29.57;50.85
70336;SHT31;57756;47.408;18.940;2022-07-23T05:46:22;29.79;50.53
70336;SHT31;57756;47.408;18.940;2022-07-23T05:48:47;30.20;49.87
70336;SHT31;57756;47.408;18.940;2022-07-23T05:51:24;30.33;48.86
70336;SHT31;57756;47.408;18.940;2022-07-23T05:53:50;30.52;46.66
70336;SHT31;57756;47.408;18.940;2022-07-23T05:56:17;30.93;47.47
70336;SHT31;57756;47.408;18.940;2022-07-23T05:58:43;31.23;46.18
70336;SHT31;57756;47.408;18.940;2022-07-23T06:01:09;31.51;44.35
70336;SHT31;57756;47.408;18.940;2022-07-23T06:03:34;31.85;46.26
70336;SHT31;57756;47.408;18.940;2022-07-23T06:06:00;32.08;44.77
70336;SHT31;57756;47.408;18.940;2022-07-23T06:08:25;32.09;42.95
70336;SHT31;57756;47.408;18.940;2022-07-23T06:10:51;32.37;43.91
70336;SHT31;57756;47.408;18.940;2022-07-23T06:13:17;32.44;43.70
70336;SHT31;57756;47.408;18.940;2022-07-23T06:15:43;32.55;43.22
70336;SHT31;57756;47.408;18.940;2022-07-23T06:18:09;32.37;45.22
70336;SHT31;57756;47.408;18.940;2022-07-23T06:20:35;32.06;44.16
70336;SHT31;57756;47.408;18.940;2022-07-23T06:23:00;31.99;44.83
70336;SHT31;57756;47.408;18.940;2022-07-23T06:25:26;32.01;44.54
70336;SHT31;57756;47.408;18.940;2022-07-23T06:27:51;32.35;45.34
70336;SHT31;57756;47.408;18.940;2022-07-23T06:30:17;32.57;45.21
70336;SHT31;57756;47.408;18.940;2022-07-23T06:32:47;32.92;43.70
70336;SHT31;57756;47.408;18.940;2022-07-23T06:35:12;33.24;43.50
70336;SHT31;57756;47.408;18.940;2022-07-23T06:37:38;33.49;42.07
70336;SHT31;57756;47.408;18.940;2022-07-23T06:40:04;33.66;42.30
70336;SHT31;57756;47.408;18.940;2022-07-23T06:42:30;34.11;40.05
70336;SHT31;57756;47.408;18.940;2022-07-23T06:44:55;34.31;39.76
70336;SHT31;57756;47.408;18.940;2022-07-23T06:47:21;34.54;38.29
70336;SHT31;57756;47.408;18.940;2022-07-23T06:49:47;34.71;37.95
70336;SHT31;57756;47.408;18.940;2022-07-23T06:52:12;34.61;37.23
70336;SHT31;57756;47.408;18.940;2022-07-23T06:54:38;34.64;36.30
70336;SHT31;57756;47.408;18.940;2022-07-23T06:57:03;34.81;37.53
70336;SHT31;57756;47.408;18.940;2022-07-23T06:59:29;35.17;35.86
70336;SHT31;57756;47.408;18.940;2022-07-23T07:01:54;35.36;37.17
70336;SHT31;57756;47.408;18.940;2022-07-23T07:04:20;35.61;35.10
70336;SHT31;57756;47.408;18.940;2022-07-23T07:06:45;35.54;36.35
70336;SHT31;57756;47.408;18.940;2022-07-23T07:09:11;35.96;37.27
70336;SHT31;57756;47.408;18.940;2022-07-23T07:11:36;36.05;34.51
70336;SHT31;57756;47.408;18.940;2022-07-23T07:14:02;36.15;35.58
70336;SHT31;57756;47.408;18.940;2022-07-23T07:16:29;36.22;34.75
70336;SHT31;57756;47.408;18.940;2022-07-23T07:18:55;36.19;34.97
70336;SHT31;57756;47.408;18.940;2022-07-23T07:21:20;36.32;36.38
70336;SHT31;57756;47.408;18.940;2022-07-23T07:23:46;36.62;35.27
70336;SHT31;57756;47.408;18.940;2022-07-23T07:26:11;36.69;35.86
70336;SHT31;57756;47.408;18.940;2022-07-23T07:28:37;37.17;34.18
70336;SHT31;57756;47.408;18.940;2022-07-23T07:31:03;37.27;34.38
70336;SHT31;57756;47.408;18.940;2022-07-23T07:33:29;37.25;33.45
70336;SHT31;57756;47.408;18.940;2022-07-23T07:35:54;37.25;33.71
70336;SHT31;57756;47.408;18.940;2022-07-23T07:38:20;37.35;33.69
70336;SHT31;57756;47.408;18.940;2022-07-23T07:40:45;37.58;32.90
70336;SHT31;57756;47.408;18.940;2022-07-23T07:43:11;37.72;32.61
70336;SHT31;57756;47.408;18.940;2022-07-23T07:45:36;37.56;31.48
70336;SHT31;57756;47.408;18.940;2022-07-23T07:48:02;37.83;32.03
70336;SHT31;57756;47.408;18.940;2022-07-23T07:50:28;37.79;31.71
70336;SHT31;57756;47.408;18.940;2022-07-23T07:52:53;38.00;33.25
70336;SHT31;57756;47.408;18.940;2022-07-23T07:55:19;38.19;30.68
70336;SHT31;57756;47.408;18.940;2022-07-23T07:57:44;38.30;30.11
70336;SHT31;57756;47.408;18.940;2022-07-23T08:00:10;38.51;30.68
70336;SHT31;57756;47.408;18.940;2022-07-23T08:02:46;38.85;32.62
70336;SHT31;57756;47.408;18.940;2022-07-23T08:05:12;39.14;30.56
70336;SHT31;57756;47.408;18.940;2022-07-23T08:07:38;39.20;31.23
70336;SHT31;57756;47.408;18.940;2022-07-23T08:10:08;39.53;30.33
70336;SHT31;57756;47.408;18.940;2022-07-23T08:12:49;39.87;30.84
70336;SHT31;57756;47.408;18.940;2022-07-23T08:15:17;39.46;29.81
70336;SHT31;57756;47.408;18.940;2022-07-23T08:17:44;39.70;29.85
70336;SHT31;57756;47.408;18.940;2022-07-23T08:20:11;39.81;29.76
70336;SHT31;57756;47.408;18.940;2022-07-23T08:22:53;39.98;30.68
70336;SHT31;57756;47.408;18.940;2022-07-23T08:25:21;40.07;30.06
70336;SHT31;57756;47.408;18.940;2022-07-23T08:27:48;40.32;28.62
70336;SHT31;57756;47.408;18.940;2022-07-23T08:30:14;40.26;29.08
70336;SHT31;57756;47.408;18.940;2022-07-23T08:32:49;40.77;29.24
70336;SHT31;57756;47.408;18.940;2022-07-23T08:35:15;40.74;28.75
70336;SHT31;57756;47.408;18.940;2022-07-23T08:37:41;40.76;28.71
70336;SHT31;57756;47.408;18.940;2022-07-23T08:40:07;40.40;29.38
70336;SHT31;57756;47.408;18.940;2022-07-23T08:42:33;40.91;28.47
70336;SHT31;57756;47.408;18.940;2022-07-23T08:45:02;41.02;29.02
70336;SHT31;57756;47.408;18.940;2022-07-23T08:47:28;40.90;27.42
70336;SHT31;57756;47.408;18.940;2022-07-23T08:49:55;40.37;28.35
70336;SHT31;57756;47.408;18.940;2022-07-23T08:52:21;40.64;29.24
70336;SHT31;57756;47.408;18.940;2022-07-23T08:54:48;41.17;30.55
70336;SHT31;57756;47.408;18.940;2022-07-23T08:57:14;41.25;27.87
70336;SHT31;57756;47.408;18.940;2022-07-23T08:59:41;41.24;27.80
70336;SHT31;57756;47.408;18.940;2022-07-23T09:02:06;40.66;27.65
70336;SHT31;57756;47.408;18.940;2022-07-23T09:04:32;40.47;27.68
70336;SHT31;57756;47.408;18.940;2022-07-23T09:06:57;40.80;26.68
70336;SHT31;57756;47.408;18.940;2022-07-23T09:09:23;40.94;26.54
70336;SHT31;57756;47.408;18.940;2022-07-23T09:12:02;40.80;27.33
70336;SHT31;57756;47.408;18.940;2022-07-23T09:14:42;41.01;27.80
70336;SHT31;57756;47.408;18.940;2022-07-23T09:17:13;41.12;27.22
70336;SHT31;57756;47.408;18.940;2022-07-23T09:19:40;41.37;27.02
70336;SHT31;57756;47.408;18.940;2022-07-23T09:22:24;41.46;27.24
70336;SHT31;57756;47.408;18.940;2022-07-23T09:25:10;41.48;27.85
70336;SHT31;57756;47.408;18.940;2022-07-23T09:27:53;42.01;28.71
70336;SHT31;57756;47.408;18.940;2022-07-23T09:30:21;41.90;26.19
70336;SHT31;57756;47.408;18.940;2022-07-23T09:36:02;42.07;25.61
70336;SHT31;57756;47.408;18.940;2022-07-23T09:38:28;42.50;27.03
70336;SHT31;57756;47.408;18.940;2022-07-23T09:43:32;42.87;26.77
70336;SHT31;57756;47.408;18.940;2022-07-23T09:48:42;42.65;27.29
70336;SHT31;57756;47.408;18.940;2022-07-23T09:51:07;42.72;26.11
70336;SHT31;57756;47.408;18.940;2022-07-23T09:53:33;41.96;26.55
70336;SHT31;57756;47.408;18.940;2022-07-23T09:56:02;42.23;26.24
70336;SHT31;57756;47.408;18.940;2022-07-23T09:58:28;42.65;26.21
70336;SHT31;57756;47.408;18.940;2022-07-23T10:00:55;43.53;26.60
70336;SHT31;57756;47.408;18.940;2022-07-23T10:03:23;43.77;25.93
70336;SHT31;57756;47.408;18.940;2022-07-23T10:05:50;44.12;25.79
70336;SHT31;57756;47.408;18.940;2022-07-23T10:08:18;44.36;24.68
70336;SHT31;57756;47.408;18.940;2022-07-23T10:10:50;43.96;24.97
70336;SHT31;57756;47.408;18.940;2022-07-23T10:13:16;44.41;25.69
70336;SHT31;57756;47.408;18.940;2022-07-23T10:16:01;44.09;24.24
70336;SHT31;57756;47.408;18.940;2022-07-23T10:18:26;44.35;23.54
70336;SHT31;57756;47.408;18.940;2022-07-23T10:20:52;44.63;23.24
70336;SHT31;57756;47.408;18.940;2022-07-23T10:26:36;43.66;24.18
70336;SHT31;57756;47.408;18.940;2022-07-23T10:29:05;43.75;25.03
70336;SHT31;57756;47.408;18.940;2022-07-23T10:31:47;44.11;24.06
70336;SHT31;57756;47.408;18.940;2022-07-23T10:34:27;43.84;23.46
70336;SHT31;57756;47.408;18.940;2022-07-23T10:36:58;43.99;24.18
70336;SHT31;57756;47.408;18.940;2022-07-23T10:39:29;44.03;27.95
70336;SHT31;57756;47.408;18.940;2022-07-23T10:42:14;44.28;24.25
70336;SHT31;57756;47.408;18.940;2022-07-23T10:44:43;44.50;22.71
70336;SHT31;57756;47.408;18.940;2022-07-23T10:47:10;44.67;22.99
70336;SHT31;57756;47.408;18.940;2022-07-23T10:49:46;44.78;23.79
70336;SHT31;57756;47.408;18.940;2022-07-23T10:54:40;45.60;22.21
70336;SHT31;57756;47.408;18.940;2022-07-23T10:57:07;45.80;22.63
70336;SHT31;57756;47.408;18.940;2022-07-23T11:02:44;46.16;23.90
70336;SHT31;57756;47.408;18.940;2022-07-23T11:05:13;46.16;23.59
70336;SHT31;57756;47.408;18.940;2022-07-23T11:08:19;45.77;23.23
70336;SHT31;57756;47.408;18.940;2022-07-23T11:10:46;45.55;22.78
70336;SHT31;57756;47.408;18.940;2022-07-23T11:24:03;44.84;22.88
70336;SHT31;57756;47.408;18.940;2022-07-23T11:32:00;44.59;23.16
70336;SHT31;57756;47.408;18.940;2022-07-23T11:34:39;44.18;23.81
70336;SHT31;57756;47.408;18.940;2022-07-23T11:37:08;44.56;22.79
70336;SHT31;57756;47.408;18.940;2022-07-23T11:39:34;44.18;23.48
70336;SHT31;57756;47.408;18.940;2022-07-23T11:42:01;44.11;23.45
70336;SHT31;57756;47.408;18.940;2022-07-23T11:44:29;43.72;22.97
70336;SHT31;57756;47.408;18.940;2022-07-23T11:46:58;43.98;25.36
70336;SHT31;57756;47.408;18.940;2022-07-23T11:49:25;43.50;23.66
70336;SHT31;57756;47.408;18.940;2022-07-23T11:54:30;44.60;25.15
70336;SHT31;57756;47.408;18.940;2022-07-23T11:56:57;44.77;24.78
70336;SHT31;57756;47.408;18.940;2022-07-23T11:59:24;44.47;23.79
70336;SHT31;57756;47.408;18.940;2022-07-23T12:02:03;44.39;22.78
70336;SHT31;57756;47.408;18.940;2022-07-23T12:04:42;44.12;24.58
70336;SHT31;57756;47.408;18.940;2022-07-23T12:07:28;43.74;24.63
70336;SHT31;57756;47.408;18.940;2022-07-23T12:09:54;43.17;25.16
70336;SHT31;57756;47.408;18.940;2022-07-23T12:12:21;43.21;25.14
70336;SHT31;57756;47.408;18.940;2022-07-23T12:14:55;43.00;23.68
70336;SHT31;57756;47.408;18.940;2022-07-23T12:17:22;43.23;24.15
70336;SHT31;57756;47.408;18.940;2022-07-23T12:19:52;42.90;23.35
70336;SHT31;57756;47.408;18.940;2022-07-23T12:22:17;42.87;25.49
70336;SHT31;57756;47.408;18.940;2022-07-23T12:27:23;42.96;24.61
70336;SHT31;57756;47.408;18.940;2022-07-23T12:29:49;43.02;25.74
70336;SHT31;57756;47.408;18.940;2022-07-23T12:32:19;42.47;24.20
70336;SHT31;57756;47.408;18.940;2022-07-23T12:34:45;42.55;24.63
70336;SHT31;57756;47.408;18.940;2022-07-23T12:37:32;42.44;24.17
70336;SHT31;57756;47.408;18.940;2022-07-23T12:39:58;43.28;24.88
70336;SHT31;57756;47.408;18.940;2022-07-23T12:42:23;43.23;24.68
70336;SHT31;57756;47.408;18.940;2022-07-23T12:45:04;42.51;26.32
70336;SHT31;57756;47.408;18.940;2022-07-23T12:47:29;41.79;25.00
70336;SHT31;57756;47.408;18.940;2022-07-23T12:49:55;42.05;24.97
70336;SHT31;57756;47.408;18.940;2022-07-23T12:52:21;42.16;26.06
70336;SHT31;57756;47.408;18.940;2022-07-23T12:54:46;42.50;27.34
70336;SHT31;57756;47.408;18.940;2022-07-23T12:57:12;42.69;25.70
70336;SHT31;57756;47.408;18.940;2022-07-23T12:59:38;42.50;26.34
70336;SHT31;57756;47.408;18.940;2022-07-23T13:02:03;42.52;25.71
70336;SHT31;57756;47.408;18.940;2022-07-23T13:04:29;42.42;25.75
70336;SHT31;57756;47.408;18.940;2022-07-23T13:06:58;42.38;23.95
70336;SHT31;57756;47.408;18.940;2022-07-23T13:09:27;42.51;26.28
70336;SHT31;57756;47.408;18.940;2022-07-23T13:11:54;42.47;24.86
70336;SHT31;57756;47.408;18.940;2022-07-23T13:14:21;42.34;26.64
70336;SHT31;57756;47.408;18.940;2022-07-23T13:16:48;42.72;25.10
70336;SHT31;57756;47.408;18.940;2022-07-23T13:19:14;42.80;23.88
70336;SHT31;57756;47.408;18.940;2022-07-23T13:21:40;42.69;24.95
70336;SHT31;57756;47.408;18.940;2022-07-23T13:24:07;42.90;23.87
70336;SHT31;57756;47.408;18.940;2022-07-23T13:26:33;42.31;24.48
70336;SHT31;57756;47.408;18.940;2022-07-23T13:28:58;42.51;23.68
70336;SHT31;57756;47.408;18.940;2022-07-23T13:31:24;42.32;25.74
70336;SHT31;57756;47.408;18.940;2022-07-23T13:33:49;42.24;23.78
70336;SHT31;57756;47.408;18.940;2022-07-23T13:36:15;41.86;24.46
70336;SHT31;57756;47.408;18.940;2022-07-23T13:38:41;41.62;23.66
70336;SHT31;57756;47.408;18.940;2022-07-23T13:41:07;41.19;24.67
70336;SHT31;57756;47.408;18.940;2022-07-23T13:43:32;41.14;25.11
70336;SHT31;57756;47.408;18.940;2022-07-23T13:45:58;40.76;24.99
70336;SHT31;57756;47.408;18.940;2022-07-23T13:48:24;40.70;25.37
70336;SHT31;57756;47.408;18.940;2022-07-23T13:50:50;40.76;24.71
70336;SHT31;57756;47.408;18.940;2022-07-23T13:53:18;40.81;24.60
70336;SHT31;57756;47.408;18.940;2022-07-23T13:55:46;40.74;25.10
70336;SHT31;57756;47.408;18.940;2022-07-23T13:58:12;40.49;26.39
70336;SHT31;57756;47.408;18.940;2022-07-23T14:00:41;40.33;25.02
70336;SHT31;57756;47.408;18.940;2022-07-23T14:03:06;40.15;25.26
70336;SHT31;57756;47.408;18.940;2022-07-23T14:05:32;40.15;25.32
70336;SHT31;57756;47.408;18.940;2022-07-23T14:07:58;40.18;26.72
70336;SHT31;57756;47.408;18.940;2022-07-23T14:10:23;40.13;28.24
70336;SHT31;57756;47.408;18.940;2022-07-23T14:12:51;40.19;26.46
70336;SHT31;57756;47.408;18.940;2022-07-23T14:15:18;40.13;24.07
70336;SHT31;57756;47.408;18.940;2022-07-23T14:17:44;40.02;25.67
70336;SHT31;57756;47.408;18.940;2022-07-23T14:20:11;39.78;25.28
70336;SHT31;57756;47.408;18.940;2022-07-23T14:22:37;39.81;26.90
70336;SHT31;57756;47.408;18.940;2022-07-23T14:25:04;39.61;25.44
70336;SHT31;57756;47.408;18.940;2022-07-23T14:27:30;39.62;24.98
70336;SHT31;57756;47.408;18.940;2022-07-23T14:29:56;39.47;28.01
70336;SHT31;57756;47.408;18.940;2022-07-23T14:32:21;39.54;26.80
70336;SHT31;57756;47.408;18.940;2022-07-23T14:34:48;39.43;25.63
70336;SHT31;57756;47.408;18.940;2022-07-23T14:37:13;39.06;25.74
70336;SHT31;57756;47.408;18.940;2022-07-23T14:39:40;38.92;25.16
70336;SHT31;57756;47.408;18.940;2022-07-23T14:42:06;39.03;25.15
70336;SHT31;57756;47.408;18.940;2022-07-23T14:44:32;38.94;26.79
70336;SHT31;57756;47.408;18.940;2022-07-23T14:46:57;38.79;28.94
70336;SHT31;57756;47.408;18.940;2022-07-23T14:49:23;38.61;28.71
70336;SHT31;57756;47.408;18.940;2022-07-23T14:51:48;38.19;27.26
70336;SHT31;57756;47.408;18.940;2022-07-23T14:54:14;38.28;28.31
70336;SHT31;57756;47.408;18.940;2022-07-23T14:56:41;38.06;27.72
70336;SHT31;57756;47.408;18.940;2022-07-23T14:59:07;37.87;27.00
70336;SHT31;57756;47.408;18.940;2022-07-23T15:01:33;37.56;27.38
70336;SHT31;57756;47.408;18.940;2022-07-23T15:03:59;37.61;28.99
70336;SHT31;57756;47.408;18.940;2022-07-23T15:06:25;37.54;27.53
70336;SHT31;57756;47.408;18.940;2022-07-23T15:08:51;37.36;28.95
70336;SHT31;57756;47.408;18.940;2022-07-23T15:11:16;37.21;30.77
70336;SHT31;57756;47.408;18.940;2022-07-23T15:13:42;37.01;28.79
70336;SHT31;57756;47.408;18.940;2022-07-23T15:16:08;37.00;29.01
70336;SHT31;57756;47.408;18.940;2022-07-23T15:18:33;36.87;28.70
70336;SHT31;57756;47.408;18.940;2022-07-23T15:20:59;36.70;29.76
70336;SHT31;57756;47.408;18.940;2022-07-23T15:23:26;36.59;28.91
70336;SHT31;57756;47.408;18.940;2022-07-23T15:25:54;36.46;29.81
70336;SHT31;57756;47.408;18.940;2022-07-23T15:28:20;36.37;30.24
70336;SHT31;57756;47.408;18.940;2022-07-23T15:30:46;36.05;31.17
70336;SHT31;57756;47.408;18.940;2022-07-23T15:33:11;35.39;34.12
70336;SHT31;57756;47.408;18.940;2022-07-23T15:35:37;34.14;37.60
70336;SHT31;57756;47.408;18.940;2022-07-23T15:38:02;33.48;39.26
70336;SHT31;57756;47.408;18.940;2022-07-23T15:40:28;32.98;40.62
70336;SHT31;57756;47.408;18.940;2022-07-23T15:42:54;32.59;41.85
70336;SHT31;57756;47.408;18.940;2022-07-23T15:45:19;32.08;42.82
70336;SHT31;57756;47.408;18.940;2022-07-23T15:47:47;31.70;43.62
70336;SHT31;57756;47.408;18.940;2022-07-23T15:50:13;31.56;43.88
70336;SHT31;57756;47.408;18.940;2022-07-23T15:52:38;31.50;43.77